Terminal Aerodrome Forecast
Issued by NWS Sioux Falls, SD

Home | Current Version | Previous Version | Graphics & Text | Print | Product List | Glossary On
Versions: 1 2 3 4 5 6 7 8 9 10 11 12 13 14 15
000
FTUS43 KFSD 031120
TAFHON
TAF
KHON 031120Z 0312/0412 18004KT 2SM BR SCT003
      TEMPO 0312/0313 1/2SM FG VV002
     FM031300 22004KT P6SM SCT025
     FM031700 32005KT P6SM SCT040
     FM040100 15004KT P6SM SCT040=

USA.gov is the U.S. government's official web portal to all federal, state and local government web resources and services.